Time;durP1;ratioP1;P1;durP2;ratioP2;P2;SDS_P1;SDS_P2;PMS_P1;PMS_P2;Temp;Humidity;BMP_temperature;BMP_pressure;BME280_temperature;BME280_humidity;BME280_pressure;Samples;Min_cycle;Max_cycle;Signal;HPM_P1;HPM_P2
2023/10/03 00:00:31;;;;;;;44.83;23.88;;;17.50;99.90;;;;;;5062071;28;20099;-71
2023/10/03 00:02:57;;;;;;;46.97;22.90;;;17.50;99.90;;;;;;5062797;28;20059;-71
2023/10/03 00:05:28;;;;;;;43.47;22.83;;;17.50;99.90;;;;;;5064729;28;20040;-70
2023/10/03 00:07:57;;;;;;;48.70;22.30;;;17.40;99.90;;;;;;5068527;28;20135;-69
2023/10/03 00:10:23;;;;;;;44.25;23.05;;;17.40;99.90;;;;;;5069655;28;20384;-70
2023/10/03 00:12:51;;;;;;;45.35;21.85;;;17.40;99.90;;;;;;5070505;28;20036;-70
2023/10/03 00:15:18;;;;;;;43.33;22.75;;;17.40;99.90;;;;;;5064079;28;20049;-69
2023/10/03 00:17:47;;;;;;;39.75;20.98;;;17.30;99.90;;;;;;5064268;28;20036;-70
2023/10/03 00:20:16;;;;;;;41.72;21.10;;;17.30;99.90;;;;;;5069330;28;20032;-69
2023/10/03 00:22:42;;;;;;;41.08;19.60;;;17.20;99.90;;;;;;5071009;28;20039;-69
2023/10/03 00:25:18;;;;;;;38.78;19.65;;;17.20;99.90;;;;;;5059905;28;20055;-69
2023/10/03 00:27:49;;;;;;;39.70;18.92;;;17.20;99.90;;;;;;5062919;28;20044;-69
2023/10/03 00:30:19;;;;;;;;;;;17.20;99.90;;;;;;5070520;28;20117;-69
2023/10/03 00:32:45;;;;;;;35.75;18.30;;;17.30;99.90;;;;;;5064506;28;19923;-70
2023/10/03 00:35:12;;;;;;;38.58;19.10;;;17.30;99.90;;;;;;5070142;28;20125;-70
2023/10/03 00:37:38;;;;;;;38.65;18.38;;;17.20;99.90;;;;;;5067269;28;20473;-71
2023/10/03 00:40:27;;;;;;;42.63;19.10;;;17.30;99.90;;;;;;5065215;28;20037;-70
2023/10/03 00:42:59;;;;;;;39.35;18.13;;;17.20;99.90;;;;;;5060330;28;20079;-69
2023/10/03 00:45:29;;;;;;;40.63;18.63;;;17.20;99.90;;;;;;5069349;28;20106;-70
2023/10/03 00:47:59;;;;;;;36.10;17.65;;;17.20;99.90;;;;;;5070543;28;20053;-70
2023/10/03 00:50:27;;;;;;;37.73;18.57;;;17.20;99.90;;;;;;5060037;28;20094;-69
2023/10/03 00:52:57;;;;;;;38.33;18.30;;;17.10;99.90;;;;;;5067569;28;20309;-69
2023/10/03 00:55:26;;;;;;;38.40;18.85;;;17.20;99.90;;;;;;5068619;28;20135;-70
2023/10/03 00:58:06;;;;;;;38.47;19.23;;;17.20;99.90;;;;;;5056224;28;20040;-68
2023/10/03 01:00:37;;;;;;;39.35;18.52;;;17.20;99.90;;;;;;5062937;28;20568;-69
2023/10/03 01:03:03;;;;;;;38.38;17.63;;;17.30;99.90;;;;;;5070513;28;20044;-69
2023/10/03 01:05:29;;;;;;;39.90;17.50;;;17.30;99.90;;;;;;5064125;28;20041;-70
2023/10/03 01:07:55;;;;;;;36.72;18.27;;;17.40;99.90;;;;;;5064524;28;20123;-69
2023/10/03 01:10:21;;;;;;;42.15;17.85;;;17.40;99.90;;;;;;5070928;28;20044;-70
2023/10/03 01:12:48;;;;;;;33.95;16.60;;;17.50;99.90;;;;;;5071261;28;20119;-69
2023/10/03 01:15:16;;;;;;;43.28;17.27;;;17.40;99.90;;;;;;5051300;28;20048;-68
2023/10/03 01:17:44;;;;;;;39.80;16.83;;;17.50;99.90;;;;;;5064195;28;20066;-69
2023/10/03 01:20:29;;;;;;;35.28;17.65;;;17.50;99.90;;;;;;5069999;28;20087;-68
2023/10/03 01:22:56;;;;;;;41.03;17.95;;;17.60;99.90;;;;;;5060917;28;20041;-70
2023/10/03 01:25:22;;;;;;;36.05;16.63;;;17.60;99.90;;;;;;5073464;28;20044;-70
2023/10/03 01:27:48;;;;;;;40.85;17.88;;;17.60;99.90;;;;;;5075621;28;20037;-70
2023/10/03 01:30:14;;;;;;;36.95;16.63;;;17.60;99.90;;;;;;5062116;28;20384;-70
2023/10/03 01:32:48;;;;;;;36.90;18.00;;;17.60;99.90;;;;;;5068380;28;20040;-70
2023/10/03 01:35:15;;;;;;;40.55;17.85;;;17.60;99.90;;;;;;5074890;28;20517;-70
2023/10/03 01:37:41;;;;;;;36.08;17.27;;;17.50;99.90;;;;;;5074940;28;20051;-69
2023/10/03 01:40:13;;;;;;;42.72;17.70;;;17.50;99.90;;;;;;5068317;28;20468;-69
2023/10/03 01:42:46;;;;;;;41.13;18.98;;;17.50;99.90;;;;;;5063211;28;20075;-69
2023/10/03 01:45:13;;;;;;;39.72;17.67;;;17.40;99.90;;;;;;5074898;28;20467;-70
2023/10/03 01:47:45;;;;;;;37.60;18.17;;;17.40;99.90;;;;;;5067956;28;20075;-70
2023/10/03 01:50:11;;;;;;;40.75;18.42;;;17.40;99.90;;;;;;5065718;28;20048;-70
2023/10/03 01:52:37;;;;;;;37.72;17.80;;;17.40;99.90;;;;;;5073718;28;20131;-70
2023/10/03 01:55:03;;;;;;;44.38;18.20;;;17.40;99.90;;;;;;5074907;28;20132;-70
2023/10/03 01:57:28;;;;;;;38.58;17.35;;;17.40;99.90;;;;;;5065173;28;20045;-70
2023/10/03 01:59:55;;;;;;;36.15;17.38;;;17.40;99.90;;;;;;5074350;28;20060;-70
2023/10/03 02:02:20;;;;;;;37.78;16.05;;;17.40;99.90;;;;;;5074616;28;20040;-70
2023/10/03 02:04:46;;;;;;;39.20;17.50;;;17.30;99.90;;;;;;5062521;28;20060;-69
2023/10/03 02:07:12;;;;;;;36.90;17.10;;;17.30;99.90;;;;;;5062947;28;20053;-69
2023/10/03 02:09:37;;;;;;;37.78;17.67;;;17.30;99.90;;;;;;5073354;28;20471;-69
2023/10/03 02:12:04;;;;;;;37.45;17.23;;;17.40;99.90;;;;;;5064019;28;20045;-69
2023/10/03 02:14:30;;;;;;;36.65;16.65;;;17.30;99.90;;;;;;5064400;28;20036;-69
2023/10/03 02:16:55;;;;;;;37.70;16.45;;;17.30;99.90;;;;;;5073931;28;20037;-69
2023/10/03 02:19:23;;;;;;;33.72;16.63;;;17.30;99.90;;;;;;5069687;28;20040;-70
2023/10/03 02:21:55;;;;;;;35.08;16.15;;;17.30;99.90;;;;;;5062172;28;20040;-69
2023/10/03 02:24:20;;;;;;;36.30;16.38;;;17.20;99.90;;;;;;5072539;28;20040;-69
2023/10/03 02:26:47;;;;;;;39.78;17.20;;;17.30;99.90;;;;;;5074096;28;20131;-70
2023/10/03 02:29:12;;;;;;;36.75;16.23;;;17.30;99.90;;;;;;5061263;28;20052;-70
2023/10/03 02:31:38;;;;;;;35.17;15.85;;;17.30;99.90;;;;;;5069754;28;20455;-71
2023/10/03 02:34:05;;;;;;;36.10;16.40;;;17.40;99.90;;;;;;5071949;28;20048;-70
2023/10/03 02:36:31;;;;;;;38.55;16.65;;;17.40;99.90;;;;;;5066172;28;20036;-69
2023/10/03 02:38:57;;;;;;;36.80;15.98;;;17.40;99.90;;;;;;5066491;28;20063;-69
2023/10/03 02:41:23;;;;;;;39.42;15.90;;;17.40;99.90;;;;;;5072638;28;20040;-70
2023/10/03 02:43:49;;;;;;;35.35;15.48;;;17.40;99.90;;;;;;5074059;28;20098;-69
2023/10/03 02:46:15;;;;;;;35.55;16.17;;;17.50;99.90;;;;;;5064547;28;20045;-69
2023/10/03 02:48:44;;;;;;;34.35;15.55;;;17.60;99.90;;;;;;5069210;28;20387;-70
2023/10/03 02:51:12;;;;;;;40.83;16.58;;;17.60;99.90;;;;;;5074025;28;20072;-69
2023/10/03 02:53:38;;;;;;;37.83;15.85;;;17.60;99.90;;;;;;5066979;28;20491;-70
2023/10/03 02:56:04;;;;;;;35.25;15.65;;;17.70;99.90;;;;;;5053734;28;20116;-69
2023/10/03 02:58:30;;;;;;;34.40;15.60;;;17.70;99.90;;;;;;5073453;28;20033;-70
2023/10/03 03:00:56;;;;;;;35.13;16.05;;;17.70;99.90;;;;;;5073359;28;20131;-70
2023/10/03 03:03:32;;;;;;;37.15;16.15;;;17.80;99.90;;;;;;5067644;28;20033;-69
2023/10/03 03:05:59;;;;;;;37.63;15.95;;;17.80;99.90;;;;;;5070425;28;20415;-70
2023/10/03 03:08:25;;;;;;;33.50;15.32;;;17.90;99.90;;;;;;5073576;28;20033;-71
2023/10/03 03:10:55;;;;;;;35.25;15.13;;;18.10;99.90;;;;;;5063357;28;20507;-70
2023/10/03 03:13:26;;;;;;;36.50;14.85;;;18.10;99.90;;;;;;5062479;28;20028;-70
2023/10/03 03:16:03;;;;;;;33.28;15.27;;;18.10;99.90;;;;;;5070558;28;20368;-70
2023/10/03 03:18:50;;;;;;;37.05;16.42;;;18.20;99.90;;;;;;5073192;28;20033;-70
2023/10/03 03:21:19;;;;;;;35.85;16.25;;;18.20;99.90;;;;;;5066659;28;20090;-70
2023/10/03 03:23:56;;;;;;;35.70;14.88;;;18.30;99.90;;;;;;5072565;28;20501;-71
2023/10/03 03:26:29;;;;;;;37.78;16.27;;;18.20;99.90;;;;;;5075197;28;20410;-72
2023/10/03 03:28:54;;;;;;;36.08;15.40;;;18.20;99.90;;;;;;5069986;28;20033;-70
2023/10/03 03:31:21;;;;;;;32.38;15.38;;;18.20;99.90;;;;;;5075153;28;20062;-71
2023/10/03 03:33:52;;;;;;;37.20;16.52;;;18.20;99.90;;;;;;5075739;28;20044;-71
2023/10/03 03:36:23;;;;;;;33.50;15.05;;;18.20;99.90;;;;;;5060577;28;20041;-71
2023/10/03 03:38:51;;;;;;;34.53;15.05;;;18.10;99.90;;;;;;5079708;28;20040;-71
2023/10/03 03:41:18;;;;;;;36.35;15.38;;;18.20;99.90;;;;;;5074643;28;20036;-69
2023/10/03 03:43:44;;;;;;;33.05;15.20;;;18.10;99.90;;;;;;5066687;28;20037;-69
2023/10/03 03:46:10;;;;;;;37.88;16.92;;;18.10;99.90;;;;;;5061198;28;20119;-69
2023/10/03 03:48:36;;;;;;;36.53;16.25;;;18.10;99.90;;;;;;5071128;28;20120;-68
2023/10/03 03:51:06;;;;;;;38.00;16.88;;;18.10;99.90;;;;;;5072458;28;20510;-69
2023/10/03 03:53:32;;;;;;;33.20;16.00;;;18.10;99.90;;;;;;5063986;28;20099;-69
2023/10/03 03:56:04;;;;;;;33.95;13.95;;;18.10;99.90;;;;;;5066670;28;20551;-69
2023/10/03 03:58:31;;;;;;;35.10;14.60;;;18.20;99.90;;;;;;5064400;28;20116;-69
2023/10/03 04:00:58;;;;;;;33.22;14.38;;;18.20;99.90;;;;;;5066086;28;20055;-69
2023/10/03 04:03:25;;;;;;;30.02;14.20;;;18.20;99.90;;;;;;5069164;28;20036;-70
2023/10/03 04:05:51;;;;;;;34.42;13.75;;;18.20;99.90;;;;;;5072016;28;20059;-69
2023/10/03 04:08:16;;;;;;;36.15;14.85;;;18.20;99.90;;;;;;5069778;28;20041;-69
2023/10/03 04:10:45;;;;;;;33.58;14.77;;;18.30;99.90;;;;;;5064237;28;20039;-70
2023/10/03 04:13:13;;;;;;;31.83;14.52;;;18.30;99.90;;;;;;5069408;28;20090;-69
2023/10/03 04:15:39;;;;;;;32.60;14.52;;;18.30;99.90;;;;;;5070631;28;20427;-69
2023/10/03 04:18:13;;;;;;;32.28;13.25;;;18.40;99.90;;;;;;5057009;28;20029;-70
2023/10/03 04:20:40;;;;;;;33.67;13.85;;;18.30;99.90;;;;;;5067064;28;20039;-70
2023/10/03 04:23:08;;;;;;;31.40;13.80;;;18.40;99.90;;;;;;5068395;28;20491;-69
2023/10/03 04:25:34;;;;;;;29.08;13.50;;;18.40;99.90;;;;;;5069596;28;20553;-70
2023/10/03 04:28:01;;;;;;;30.42;12.98;;;18.40;99.90;;;;;;5067038;28;20115;-69
2023/10/03 04:30:27;;;;;;;34.28;13.75;;;18.50;99.90;;;;;;5071251;28;20072;-70
2023/10/03 04:32:54;;;;;;;33.90;14.05;;;18.50;99.90;;;;;;5071922;28;20209;-69
2023/10/03 04:35:22;;;;;;;30.45;13.82;;;18.50;99.90;;;;;;5060817;28;20052;-70
2023/10/03 04:37:51;;;;;;;28.00;13.63;;;18.50;99.90;;;;;;5065732;28;20502;-70
2023/10/03 04:40:22;;;;;;;32.22;13.13;;;18.50;99.90;;;;;;5071501;28;20162;-70
2023/10/03 04:42:49;;;;;;;26.27;12.82;;;18.50;99.90;;;;;;5068058;28;20054;-69
2023/10/03 04:45:15;;;;;;;29.00;13.45;;;18.50;99.90;;;;;;5068579;28;20080;-70
2023/10/03 04:47:44;;;;;;;31.27;13.32;;;18.50;99.90;;;;;;5071002;28;20125;-70
2023/10/03 04:50:11;;;;;;;27.40;12.27;;;18.50;99.90;;;;;;5067417;28;20090;-71
2023/10/03 04:52:41;;;;;;;30.83;12.48;;;18.50;99.90;;;;;;5063409;28;20115;-70
2023/10/03 04:55:07;;;;;;;27.98;12.77;;;18.50;99.90;;;;;;5059657;28;20080;-70
2023/10/03 04:57:33;;;;;;;28.60;12.63;;;18.50;99.90;;;;;;5069097;28;20035;-69
2023/10/03 04:59:59;;;;;;;29.23;13.52;;;18.50;99.90;;;;;;5059817;28;20045;-69
2023/10/03 05:02:28;;;;;;;29.88;12.57;;;18.40;99.90;;;;;;5063012;28;20150;-71
2023/10/03 05:04:55;;;;;;;32.15;12.38;;;18.50;99.90;;;;;;5053822;28;20044;-70
2023/10/03 05:07:23;;;;;;;27.83;12.40;;;18.50;99.90;;;;;;5054409;28;20083;-71
2023/10/03 05:09:51;;;;;;;27.13;12.43;;;18.50;99.90;;;;;;5061652;28;20029;-70
2023/10/03 05:12:16;;;;;;;31.23;13.02;;;18.60;99.90;;;;;;5067885;28;20060;-69
2023/10/03 05:14:42;;;;;;;28.60;12.25;;;18.70;99.90;;;;;;5064798;28;20115;-70
2023/10/03 05:17:07;;;;;;;28.65;12.60;;;18.70;99.90;;;;;;5061555;28;20037;-70
2023/10/03 05:19:34;;;;;;;29.70;11.88;;;18.80;99.90;;;;;;5065929;28;20051;-69
2023/10/03 05:22:00;;;;;;;29.20;12.27;;;18.90;99.90;;;;;;5066795;28;20040;-70
2023/10/03 05:24:25;;;;;;;30.15;11.88;;;19.00;99.90;;;;;;5061255;28;20047;-70
2023/10/03 05:26:55;;;;;;;29.50;12.18;;;19.00;99.90;;;;;;5062081;28;20124;-70
2023/10/03 05:29:21;;;;;;;27.73;12.20;;;19.10;99.90;;;;;;5070700;28;20076;-71
2023/10/03 05:31:48;;;;;;;24.10;11.00;;;19.10;99.90;;;;;;5065983;28;20525;-71
2023/10/03 05:34:15;;;;;;;27.98;11.60;;;19.10;99.90;;;;;;5061292;28;20080;-70
2023/10/03 05:36:41;;;;;;;25.30;11.23;;;19.20;99.90;;;;;;5067374;28;20521;-71
2023/10/03 05:39:11;;;;;;;23.85;10.77;;;19.30;99.90;;;;;;5067833;28;20076;-70
2023/10/03 05:41:40;;;;;;;21.50;10.57;;;19.30;99.90;;;;;;5052339;28;20051;-70
2023/10/03 05:44:11;;;;;;;23.05;10.32;;;19.30;99.90;;;;;;5070285;28;20036;-70
2023/10/03 05:46:41;;;;;;;25.52;10.40;;;19.40;99.90;;;;;;5070998;28;20044;-70
2023/10/03 05:49:06;;;;;;;27.42;11.07;;;19.30;99.90;;;;;;5071156;28;20045;-70
2023/10/03 05:51:33;;;;;;;27.45;10.95;;;19.30;99.90;;;;;;5059423;28;20090;-71
2023/10/03 05:53:59;;;;;;;22.27;9.45;;;19.30;99.90;;;;;;5061720;28;20091;-70
2023/10/03 05:56:25;;;;;;;23.05;9.65;;;19.30;99.90;;;;;;5061343;28;20060;-70
2023/10/03 05:58:50;;;;;;;21.75;10.48;;;19.40;99.90;;;;;;5054774;28;20068;-71
2023/10/03 06:01:16;;;;;;;27.08;10.50;;;19.40;99.90;;;;;;5064491;28;20135;-71
2023/10/03 06:03:42;;;;;;;23.05;10.45;;;19.40;99.90;;;;;;5070719;28;20033;-71
2023/10/03 06:06:07;;;;;;;22.45;10.07;;;19.40;99.90;;;;;;5056717;28;20041;-71
2023/10/03 06:08:33;;;;;;;21.75;9.90;;;19.40;99.90;;;;;;5070976;28;20040;-71
2023/10/03 06:11:00;;;;;;;20.48;9.35;;;19.40;99.90;;;;;;5074263;28;20032;-71
2023/10/03 06:13:26;;;;;;;21.92;8.48;;;19.40;99.90;;;;;;5070666;28;20044;-71
2023/10/03 06:15:52;;;;;;;17.48;8.10;;;19.50;99.90;;;;;;5058346;28;20495;-70
2023/10/03 06:18:18;;;;;;;19.33;6.97;;;19.40;99.90;;;;;;5072237;28;20032;-71
2023/10/03 06:20:43;;;;;;;16.58;7.00;;;19.50;99.90;;;;;;5074467;28;20041;-71
2023/10/03 06:23:09;;;;;;;19.58;6.78;;;19.50;99.90;;;;;;5070036;28;20036;-72
2023/10/03 06:25:35;;;;;;;18.58;7.05;;;19.50;99.90;;;;;;5073295;28;20052;-69
2023/10/03 06:28:02;;;;;;;17.67;7.35;;;19.40;99.90;;;;;;5074177;28;20044;-69
2023/10/03 06:30:28;;;;;;;19.35;7.78;;;19.40;99.90;;;;;;5061567;28;20040;-69
2023/10/03 06:32:54;;;;;;;21.42;6.90;;;19.30;99.90;;;;;;5068419;28;20044;-69
2023/10/03 06:35:20;;;;;;;19.85;7.40;;;19.20;99.90;;;;;;5073688;28;20076;-69
2023/10/03 06:37:48;;;;;;;15.85;6.28;;;19.20;99.90;;;;;;5073810;28;20047;-70
2023/10/03 06:40:13;;;;;;;16.20;6.32;;;19.20;99.90;;;;;;5070478;28;20044;-69
2023/10/03 06:42:40;;;;;;;18.25;6.43;;;19.20;99.90;;;;;;5073141;28;20039;-69
2023/10/03 06:45:10;;;;;;;18.42;6.28;;;19.20;99.90;;;;;;5065909;28;20519;-69
2023/10/03 06:47:37;;;;;;;15.65;6.00;;;19.20;99.90;;;;;;5065200;28;20064;-70
2023/10/03 06:50:05;;;;;;;13.70;5.57;;;19.20;99.90;;;;;;5072304;28;20137;-70
2023/10/03 06:52:32;;;;;;;13.50;5.38;;;19.20;99.90;;;;;;5065132;28;20131;-70
2023/10/03 06:54:58;;;;;;;17.45;6.00;;;19.20;99.90;;;;;;5073361;28;20044;-69
2023/10/03 06:57:24;;;;;;;11.68;6.18;;;19.20;99.90;;;;;;5068943;28;20045;-69
2023/10/03 06:59:50;;;;;;;17.67;5.90;;;19.20;99.90;;;;;;5073162;28;20043;-69
2023/10/03 07:02:15;;;;;;;14.55;5.68;;;19.20;99.90;;;;;;5073488;28;20154;-70
2023/10/03 07:04:41;;;;;;;13.15;5.75;;;19.20;99.90;;;;;;5069674;28;20043;-70
2023/10/03 07:07:08;;;;;;;16.42;5.53;;;19.20;99.90;;;;;;5072863;28;20094;-70
2023/10/03 07:09:33;;;;;;;12.65;5.82;;;19.20;99.90;;;;;;5073168;28;20184;-69
2023/10/03 07:12:00;;;;;;;15.15;5.75;;;19.20;99.90;;;;;;5063114;28;20507;-70
2023/10/03 07:14:25;;;;;;;15.18;5.32;;;19.10;99.90;;;;;;5069541;28;20145;-69
2023/10/03 07:16:51;;;;;;;11.68;4.68;;;19.20;99.90;;;;;;5073159;28;20507;-69
2023/10/03 07:19:17;;;;;;;11.55;4.75;;;19.20;99.90;;;;;;5072706;28;20044;-68
2023/10/03 07:21:43;;;;;;;11.05;5.43;;;19.30;99.90;;;;;;5064859;28;20040;-70
2023/10/03 07:24:08;;;;;;;12.48;4.82;;;19.30;99.90;;;;;;5072862;28;20040;-70
2023/10/03 07:26:34;;;;;;;11.20;4.45;;;19.30;99.90;;;;;;5072822;28;20055;-70
2023/10/03 07:29:01;;;;;;;11.32;5.00;;;19.30;99.90;;;;;;5073406;28;20052;-70
2023/10/03 07:31:29;;;;;;;10.98;5.18;;;19.30;99.90;;;;;;5064496;28;20119;-69
2023/10/03 07:33:56;;;;;;;10.98;4.95;;;19.30;99.90;;;;;;5066686;28;20040;-70
2023/10/03 07:36:22;;;;;;;12.90;5.30;;;19.40;99.90;;;;;;5071717;28;20040;-70
2023/10/03 07:38:48;;;;;;;12.10;5.40;;;19.30;99.90;;;;;;5069155;28;20036;-69
2023/10/03 07:41:15;;;;;;;12.40;5.70;;;19.30;99.90;;;;;;5066364;28;20130;-70
2023/10/03 07:43:41;;;;;;;10.27;5.55;;;19.20;99.90;;;;;;5067286;28;20041;-69
2023/10/03 07:46:06;;;;;;;15.45;5.95;;;19.10;99.90;;;;;;5072558;28;20602;-70
2023/10/03 07:48:32;;;;;;;17.63;5.70;;;19.10;99.90;;;;;;5072706;28;20036;-71
2023/10/03 07:50:58;;;;;;;14.98;6.00;;;19.10;99.90;;;;;;5068721;28;20495;-70
2023/10/03 07:53:23;;;;;;;15.60;6.00;;;19.10;99.90;;;;;;5069138;28;20037;-71
2023/10/03 07:55:49;;;;;;;12.32;5.70;;;19.00;99.90;;;;;;5056808;28;20072;-72
2023/10/03 07:58:15;;;;;;;10.55;5.70;;;19.00;99.90;;;;;;5070093;28;20033;-72
2023/10/03 08:00:44;;;;;;;10.02;5.47;;;19.00;99.90;;;;;;5072489;28;20094;-72
2023/10/03 08:03:11;;;;;;;9.98;4.78;;;19.00;99.90;;;;;;5058751;28;20071;-71
2023/10/03 08:05:37;;;;;;;10.05;4.65;;;19.00;99.90;;;;;;5063207;28;20115;-72
2023/10/03 08:08:04;;;;;;;11.18;4.63;;;19.00;99.90;;;;;;5072147;28;20053;-72
2023/10/03 08:10:32;;;;;;;12.98;5.03;;;19.00;99.90;;;;;;5057881;28;20055;-69
2023/10/03 08:12:59;;;;;;;10.73;4.65;;;19.00;99.90;;;;;;5065240;28;20121;-71
2023/10/03 08:15:31;;;;;;;15.27;4.50;;;18.90;99.90;;;;;;5069095;28;20041;-72
2023/10/03 08:17:58;;;;;;;9.75;4.38;;;19.00;99.90;;;;;;5072660;28;20367;-72
2023/10/03 08:20:24;;;;;;;11.32;4.70;;;18.90;99.90;;;;;;5069440;28;20036;-71
2023/10/03 08:22:52;;;;;;;11.60;5.18;;;18.80;99.90;;;;;;5059502;28;20048;-71
2023/10/03 08:25:23;;;;;;;12.88;5.35;;;18.60;99.90;;;;;;5070353;28;20044;-71
2023/10/03 08:27:49;;;;;;;11.07;4.90;;;18.30;99.90;;;;;;5058433;28;20047;-70
2023/10/03 08:30:29;;;;;;;11.68;4.90;;;18.20;99.90;;;;;;5058837;28;20450;-70
2023/10/03 08:33:06;;;;;;;13.07;5.05;;;18.20;99.90;;;;;;5064144;28;20041;-70
2023/10/03 08:35:35;;;;;;;11.30;4.95;;;18.10;99.90;;;;;;5059854;28;20037;-71
2023/10/03 08:38:05;;;;;;;12.10;4.70;;;18.00;99.90;;;;;;5065883;28;20159;-72
2023/10/03 08:40:42;;;;;;;10.00;4.17;;;17.90;99.90;;;;;;5061065;28;20107;-71
2023/10/03 08:43:09;;;;;;;11.23;4.90;;;17.90;99.90;;;;;;5071584;28;20028;-72
2023/10/03 08:45:40;;;;;;;10.18;4.70;;;17.80;99.90;;;;;;5065287;28;20082;-71
2023/10/03 08:48:06;;;;;;;12.85;5.10;;;17.80;99.90;;;;;;5054917;28;20045;-71
2023/10/03 08:50:53;;;;;;;12.00;4.78;;;17.90;99.90;;;;;;5068337;28;20043;-70
2023/10/03 08:53:26;;;;;;;11.30;4.32;;;18.00;99.90;;;;;;5071649;28;20052;-70
2023/10/03 08:55:57;;;;;;;9.07;3.92;;;18.20;99.90;;;;;;5072283;28;20037;-72
2023/10/03 08:58:28;;;;;;;8.98;3.70;;;18.40;99.90;;;;;;5058720;28;20037;-71
2023/10/03 09:00:58;;;;;;;10.70;2.90;;;18.40;99.90;;;;;;5058966;28;20406;-72
2023/10/03 09:03:47;;;;;;;6.43;2.42;;;18.30;99.90;;;;;;5063396;28;20033;-72
2023/10/03 09:06:19;;;;;;;5.50;2.20;;;18.40;99.90;;;;;;5072106;28;20037;-72
2023/10/03 09:08:47;;;;;;;8.55;2.42;;;18.40;99.90;;;;;;5072407;28;20036;-69
2023/10/03 09:11:13;;;;;;;11.23;2.28;;;18.40;99.90;;;;;;5068965;28;20048;-72
2023/10/03 09:13:40;;;;;;;8.98;2.00;;;18.30;99.90;;;;;;5071483;28;20037;-72
2023/10/03 09:16:08;;;;;;;6.40;1.95;;;18.20;99.90;;;;;;5070340;28;20044;-72
2023/10/03 09:18:41;;;;;;;4.93;1.75;;;18.10;99.90;;;;;;5065268;28;20040;-70
2023/10/03 09:21:08;;;;;;;9.45;1.88;;;18.00;99.90;;;;;;5070714;28;20036;-70
2023/10/03 09:23:40;;;;;;;8.88;2.15;;;17.90;99.90;;;;;;5071677;28;20058;-70
2023/10/03 09:26:08;;;;;;;6.82;1.92;;;17.80;99.90;;;;;;5070306;28;20044;-71
2023/10/03 09:28:37;;;;;;;4.28;1.70;;;17.80;99.90;;;;;;5064556;28;20429;-72
2023/10/03 09:31:09;;;;;;;4.78;1.20;;;17.80;99.90;;;;;;5070068;28;20036;-70
2023/10/03 09:33:40;;;;;;;7.03;1.65;;;17.70;99.90;;;;;;5059815;28;20105;-73
2023/10/03 09:36:06;;;;;;;3.63;1.48;;;17.70;99.90;;;;;;5055933;28;20064;-72
2023/10/03 09:38:42;;;;;;;4.03;1.15;;;17.70;99.90;;;;;;5064075;28;20037;-71
2023/10/03 09:41:16;;;;;;;5.32;1.33;;;17.80;99.90;;;;;;5068502;28;20040;-72
2023/10/03 09:43:47;;;;;;;5.10;1.30;;;17.80;99.90;;;;;;5072625;28;20052;-71
2023/10/03 09:46:13;;;;;;;6.68;1.55;;;17.90;99.90;;;;;;5069219;28;20575;-72
2023/10/03 09:48:39;;;;;;;3.70;0.88;;;17.80;99.90;;;;;;5064119;28;20036;-72
2023/10/03 09:51:07;;;;;;;2.30;0.68;;;17.60;99.90;;;;;;5066972;28;20399;-71
2023/10/03 09:53:36;;;;;;;3.90;0.70;;;17.00;99.90;;;;;;5057520;28;20090;-69
2023/10/03 09:56:08;;;;;;;2.70;0.90;;;16.70;99.90;;;;;;5074541;28;20044;-72
2023/10/03 09:58:34;;;;;;;3.78;0.85;;;16.60;99.90;;;;;;5073269;28;20116;-68
2023/10/03 10:01:00;;;;;;;4.65;0.73;;;16.60;99.90;;;;;;5062303;28;20415;-71
2023/10/03 10:03:33;;;;;;;4.78;1.10;;;16.70;99.90;;;;;;5074086;28;20103;-71
2023/10/03 10:06:12;;;;;;;3.55;0.82;;;16.70;99.90;;;;;;5072270;28;20051;-71
2023/10/03 10:09:23;;;;;;;5.95;1.08;;;16.80;99.90;;;;;;5048885;28;20048;-71
2023/10/03 10:12:09;;;;;;;6.10;1.13;;;16.80;99.90;;;;;;5068406;28;20123;-71
2023/10/03 10:15:01;;;;;;;5.18;1.00;;;16.90;99.90;;;;;;5053617;28;20045;-70
2023/10/03 10:17:45;;;;;;;;;;;17.00;99.90;;;;;;5052803;28;20077;-70
2023/10/03 10:20:12;;;;;;;3.38;1.00;;;17.10;99.90;;;;;;5062829;28;19944;-72
2023/10/03 10:22:58;;;;;;;3.42;0.70;;;17.10;99.90;;;;;;5063706;28;20033;-71
2023/10/03 10:25:42;;;;;;;1.45;0.70;;;17.10;99.90;;;;;;5058384;28;20072;-70
2023/10/03 10:28:10;;;;;;;2.25;0.75;;;17.10;99.90;;;;;;5049760;28;20037;-71
2023/10/03 10:30:38;;;;;;;2.65;0.70;;;17.10;99.90;;;;;;5071857;28;20120;-69
2023/10/03 10:33:16;;;;;;;3.65;0.60;;;17.00;99.90;;;;;;5073853;28;20040;-70
2023/10/03 10:36:03;;;;;;;2.85;0.50;;;17.00;99.90;;;;;;5073342;28;20045;-70
2023/10/03 10:38:31;;;;;;;3.08;0.43;;;17.00;99.90;;;;;;5062970;28;20043;-71
2023/10/03 10:41:12;;;;;;;4.20;0.73;;;17.00;99.90;;;;;;5067421;28;20036;-72
2023/10/03 10:44:09;;;;;;;5.57;0.70;;;17.00;99.90;;;;;;5065902;28;20127;-72
2023/10/03 10:46:47;;;;;;;5.38;0.90;;;17.00;99.90;;;;;;5067694;28;20072;-70
2023/10/03 10:49:31;;;;;;;4.65;0.90;;;17.00;99.90;;;;;;5069404;28;20094;-70
2023/10/03 10:52:00;;;;;;;3.00;0.82;;;17.10;99.90;;;;;;5071882;28;20060;-70
2023/10/03 10:54:25;;;;;;;3.42;0.75;;;17.10;99.90;;;;;;5072584;28;20040;-69
2023/10/03 10:57:01;;;;;;;2.22;0.47;;;17.10;99.90;;;;;;5071005;28;20106;-72
2023/10/03 10:59:27;;;;;;;3.80;0.73;;;17.10;99.90;;;;;;5063213;28;20055;-69
2023/10/03 11:01:53;;;;;;;2.00;0.75;;;17.20;99.90;;;;;;5071965;28;20094;-68
2023/10/03 11:04:23;;;;;;;3.13;0.60;;;17.10;99.90;;;;;;5064856;28;20050;-70
2023/10/03 11:06:53;;;;;;;2.17;0.80;;;17.10;99.90;;;;;;5071861;28;20044;-72
2023/10/03 11:09:23;;;;;;;1.75;0.70;;;17.10;99.90;;;;;;5072853;28;20514;-72
2023/10/03 11:11:51;;;;;;;4.55;0.98;;;17.00;99.90;;;;;;5072786;28;20037;-72
2023/10/03 11:14:29;;;;;;;3.22;0.85;;;17.00;99.90;;;;;;5057370;28;20044;-69
2023/10/03 11:16:56;;;;;;;3.92;1.00;;;17.10;99.90;;;;;;5061806;28;20124;-71
2023/10/03 11:19:22;;;;;;;2.95;0.93;;;17.20;99.90;;;;;;5069343;28;20059;-70
2023/10/03 11:21:48;;;;;;;2.15;0.80;;;17.20;99.90;;;;;;5069314;28;20058;-72
2023/10/03 11:24:22;;;;;;;5.20;1.17;;;17.20;99.90;;;;;;5064847;28;20072;-72
2023/10/03 11:26:53;;;;;;;4.95;1.10;;;17.10;99.90;;;;;;5071393;28;20040;-72
2023/10/03 11:29:39;;;;;;;3.47;0.85;;;17.10;99.90;;;;;;5072606;28;20044;-70
2023/10/03 11:32:19;;;;;;;4.80;1.13;;;17.10;99.90;;;;;;5053959;28;20037;-71
2023/10/03 11:34:45;;;;;;;2.65;1.30;;;17.10;99.90;;;;;;5066382;28;20503;-70
2023/10/03 11:37:28;;;;;;;7.05;1.20;;;16.90;99.90;;;;;;5072810;28;20086;-70
2023/10/03 11:39:53;;;;;;;5.05;1.10;;;16.80;99.90;;;;;;5059307;28;20048;-71
2023/10/03 11:42:25;;;;;;;4.35;1.13;;;16.80;99.90;;;;;;5070869;28;20498;-70
2023/10/03 11:45:00;;;;;;;4.32;0.90;;;16.70;99.90;;;;;;5072881;28;20602;-70
2023/10/03 11:47:27;;;;;;;2.17;0.88;;;16.70;99.90;;;;;;5064762;28;20051;-72
2023/10/03 11:49:52;;;;;;;8.27;1.20;;;16.60;99.90;;;;;;5065478;28;20410;-73
2023/10/03 11:52:18;;;;;;;4.55;1.20;;;16.60;99.90;;;;;;5072116;28;20036;-72
2023/10/03 11:54:45;;;;;;;5.22;1.08;;;16.50;99.90;;;;;;5070154;28;20051;-71
2023/10/03 11:57:12;;;;;;;5.38;0.90;;;16.40;99.90;;;;;;5066684;28;20163;-73
2023/10/03 11:59:40;;;;;;;4.80;1.40;;;16.30;99.90;;;;;;5058220;28;20043;-71
2023/10/03 12:02:06;;;;;;;6.43;1.30;;;16.10;99.90;;;;;;5066002;28;20403;-71
2023/10/03 12:04:34;;;;;;;3.13;1.27;;;15.90;99.90;;;;;;5068143;28;20044;-69
2023/10/03 12:07:01;;;;;;;4.20;1.10;;;15.60;99.90;;;;;;5071693;28;20052;-70
2023/10/03 12:09:26;;;;;;;3.53;1.30;;;15.30;99.90;;;;;;5072163;28;20106;-69
2023/10/03 12:11:52;;;;;;;2.95;1.10;;;15.30;99.90;;;;;;5072698;28;20075;-69
2023/10/03 12:14:17;;;;;;;4.00;1.27;;;15.30;99.90;;;;;;5065956;28;20044;-71
2023/10/03 12:16:49;;;;;;;5.47;1.40;;;15.30;99.90;;;;;;5060545;28;20037;-71
2023/10/03 12:19:14;;;;;;;5.45;1.50;;;15.20;99.90;;;;;;5071769;28;20079;-70
2023/10/03 12:21:40;;;;;;;4.30;1.30;;;15.10;99.90;;;;;;5067597;28;20076;-70
2023/10/03 12:24:06;;;;;;;5.63;1.85;;;15.20;99.90;;;;;;5070346;28;20066;-71
2023/10/03 12:26:31;;;;;;;5.32;1.85;;;15.20;99.90;;;;;;5071737;28;20071;-70
2023/10/03 12:28:58;;;;;;;7.25;1.83;;;15.30;99.90;;;;;;5069941;28;20495;-70
2023/10/03 12:31:27;;;;;;;4.80;1.25;;;15.20;99.90;;;;;;5060402;28;20131;-70
2023/10/03 12:33:55;;;;;;;3.35;1.38;;;15.20;99.90;;;;;;5070341;28;20083;-70
2023/10/03 12:36:21;;;;;;;5.35;1.70;;;15.10;99.90;;;;;;5070463;28;20048;-69
2023/10/03 12:38:47;;;;;;;6.82;1.70;;;15.00;99.90;;;;;;5061135;28;20044;-69
2023/10/03 12:41:13;;;;;;;4.93;1.67;;;15.00;99.90;;;;;;5068393;28;20036;-70
2023/10/03 12:43:46;;;;;;;8.55;1.73;;;15.00;99.90;;;;;;5070511;28;20098;-70